createdAt,value
2023-01-29T00:02:13.251Z,101169.91
2023-01-29T00:05:27.408Z,101159.09
2023-01-29T00:08:30.745Z,101157.91
2023-01-29T00:11:33.505Z,101147.06
2023-01-29T00:14:35.896Z,101150.84
2023-01-29T00:17:38.527Z,101174.56
2023-01-29T00:20:43.739Z,101180.66
2023-01-29T00:23:47.221Z,101176.09
2023-01-29T00:26:50.337Z,101188.00
2023-01-29T00:30:11.977Z,101183.41
2023-01-29T00:33:14.524Z,101178.91
2023-01-29T00:36:19.619Z,101195.38
2023-01-29T00:39:31.425Z,101171.63
2023-01-29T00:43:02.887Z,101192.00
2023-01-29T00:46:06.590Z,101196.81
2023-01-29T00:49:10.031Z,101177.72
2023-01-29T00:52:24.138Z,101197.88
2023-01-29T00:55:26.805Z,101196.41
2023-01-29T00:58:34.271Z,101178.47
2023-01-29T01:01:55.277Z,101201.56
2023-01-29T01:04:57.761Z,101200.72
2023-01-29T01:08:00.433Z,101201.50
2023-01-29T01:11:06.220Z,101198.88
2023-01-29T01:14:09.481Z,101174.72
2023-01-29T01:17:11.816Z,101177.06
2023-01-29T01:20:15.699Z,101179.81
2023-01-29T01:23:21.039Z,101197.00
2023-01-29T01:26:23.792Z,101181.12
2023-01-29T01:29:26.119Z,101207.41
2023-01-29T01:32:28.791Z,101201.53
2023-01-29T01:35:31.239Z,101199.00
2023-01-29T01:38:33.921Z,101212.13
2023-01-29T01:41:36.679Z,101208.44
2023-01-29T01:44:53.430Z,101196.03
2023-01-29T01:48:01.405Z,101198.56
2023-01-29T01:51:06.499Z,101217.91
2023-01-29T01:54:18.603Z,101217.09
2023-01-29T01:57:25.391Z,101223.47
2023-01-29T02:00:28.243Z,101200.13
2023-01-29T02:03:52.085Z,101224.94
2023-01-29T02:07:14.591Z,101196.78
2023-01-29T02:10:18.956Z,101219.00
2023-01-29T02:13:21.916Z,101201.00
2023-01-29T02:16:24.323Z,101233.16
2023-01-29T02:19:38.845Z,101229.53
2023-01-29T02:23:02.612Z,101236.28
2023-01-29T02:26:47.528Z,101239.25
2023-01-29T02:30:13.857Z,101243.47
2023-01-29T02:33:54.183Z,101246.63
2023-01-29T02:37:11.152Z,101250.25
2023-01-29T02:40:27.295Z,101221.66
2023-01-29T02:43:35.462Z,101246.06
2023-01-29T02:47:00.485Z,101237.09
2023-01-29T02:50:05.560Z,101234.38
2023-01-29T02:53:17.065Z,101262.31
2023-01-29T02:56:27.967Z,101261.91
2023-01-29T02:59:44.130Z,101262.50
2023-01-29T03:03:20.216Z,101270.94
2023-01-29T03:06:28.401Z,101273.06
2023-01-29T03:09:39.595Z,101266.34
2023-01-29T03:12:47.049Z,101272.88
2023-01-29T03:16:01.611Z,101277.09
2023-01-29T03:19:13.412Z,101272.25
2023-01-29T03:22:17.389Z,101266.34
2023-01-29T03:25:41.393Z,101274.75
2023-01-29T03:29:06.095Z,101245.94
2023-01-29T03:32:10.412Z,101272.59
2023-01-29T03:35:21.034Z,101258.50
2023-01-29T03:38:29.681Z,101286.88
2023-01-29T03:41:47.649Z,101283.31
2023-01-29T03:45:02.313Z,101294.87
2023-01-29T03:48:37.012Z,101286.00
2023-01-29T03:51:46.061Z,101298.84
2023-01-29T03:55:35.420Z,101294.63
2023-01-29T03:58:56.063Z,101288.53
2023-01-29T04:02:05.781Z,101281.16
2023-01-29T04:05:19.410Z,101272.75
2023-01-29T04:08:28.174Z,101285.38
2023-01-29T04:11:36.204Z,101278.59
2023-01-29T04:14:39.440Z,101256.97
2023-01-29T04:17:45.767Z,101277.53
2023-01-29T04:20:48.419Z,101264.06
2023-01-29T04:23:51.027Z,101288.25
2023-01-29T04:27:21.290Z,101276.66
2023-01-29T04:30:43.857Z,101277.31
2023-01-29T04:34:13.894Z,101275.81
2023-01-29T04:37:27.076Z,101272.00
2023-01-29T04:41:04.995Z,101256.50
2023-01-29T04:44:46.779Z,101280.87
2023-01-29T04:48:00.339Z,101281.53
2023-01-29T04:51:19.932Z,101283.84
2023-01-29T04:54:41.083Z,101281.09
2023-01-29T04:57:53.280Z,101263.84
2023-01-29T05:00:56.546Z,101286.94
2023-01-29T05:04:04.653Z,101281.03
2023-01-29T05:07:11.901Z,101276.41
2023-01-29T05:10:18.356Z,101279.97
2023-01-29T05:13:23.432Z,101282.06
2023-01-29T05:16:30.143Z,101285.25
2023-01-29T05:19:32.500Z,101285.88
2023-01-29T05:22:39.908Z,101266.31
2023-01-29T05:25:42.296Z,101256.91
2023-01-29T05:28:44.915Z,101276.28
2023-01-29T05:31:47.393Z,101269.91
2023-01-29T05:34:50.168Z,101284.87
2023-01-29T05:37:52.458Z,101271.63
2023-01-29T05:40:55.309Z,101284.66
2023-01-29T05:43:57.624Z,101271.41
2023-01-29T05:47:02.657Z,101278.38
2023-01-29T05:50:06.430Z,101277.47
2023-01-29T05:53:09.363Z,101264.13
2023-01-29T05:56:11.747Z,101286.22
2023-01-29T05:59:15.852Z,101287.66
2023-01-29T06:02:18.251Z,101275.97
2023-01-29T06:05:21.069Z,101289.44
2023-01-29T06:08:23.379Z,101302.91
2023-01-29T06:11:26.085Z,101272.62
2023-01-29T06:14:28.815Z,101285.06
2023-01-29T06:17:31.428Z,101308.37
2023-01-29T06:20:33.817Z,101287.38
2023-01-29T06:23:36.683Z,101313.44
2023-01-29T06:26:39.120Z,101308.03
2023-01-29T06:29:41.672Z,101303.34
2023-01-29T06:32:44.038Z,101333.66
2023-01-29T06:35:46.711Z,101322.31
2023-01-29T06:38:49.243Z,101348.03
2023-01-29T06:41:52.012Z,101323.16
2023-01-29T06:44:55.463Z,101352.66
2023-01-29T06:48:00.488Z,101353.72
2023-01-29T06:51:08.610Z,101336.25
2023-01-29T06:54:11.319Z,101336.62
2023-01-29T06:57:13.664Z,101356.03
2023-01-29T07:00:17.357Z,101357.25
2023-01-29T07:03:19.840Z,101358.50
2023-01-29T07:06:27.744Z,101339.56
2023-01-29T07:09:30.130Z,101332.19
2023-01-29T07:12:33.007Z,101357.03
2023-01-29T07:15:37.331Z,101353.03
2023-01-29T07:18:40.014Z,101349.84
2023-01-29T07:21:42.323Z,101332.84
2023-01-29T07:24:45.087Z,101354.72
2023-01-29T07:27:47.500Z,101347.94
2023-01-29T07:30:50.181Z,101345.84
2023-01-29T07:33:53.723Z,101324.87
2023-01-29T07:36:56.941Z,101341.69
2023-01-29T07:39:59.301Z,101341.69
2023-01-29T07:43:04.143Z,101334.41
2023-01-29T07:46:08.839Z,101334.09
2023-01-29T07:49:11.574Z,101328.56
2023-01-29T07:52:13.936Z,101330.66
2023-01-29T07:55:17.080Z,101330.44
2023-01-29T07:58:19.749Z,101342.09
2023-01-29T08:01:22.473Z,101308.81
2023-01-29T08:04:25.407Z,101331.94
2023-01-29T08:07:27.865Z,101338.50
2023-01-29T08:10:30.608Z,101335.78
2023-01-29T08:13:33.534Z,101343.59
2023-01-29T08:16:36.329Z,101337.28
2023-01-29T08:19:38.820Z,101339.09
2023-01-29T08:22:41.424Z,101329.00
2023-01-29T08:25:44.313Z,101337.16
2023-01-29T08:28:47.027Z,101335.25
2023-01-29T08:31:49.441Z,101351.84
2023-01-29T08:34:52.165Z,101347.84
2023-01-29T08:37:56.171Z,101352.56
2023-01-29T08:40:58.804Z,101359.69
2023-01-29T08:44:02.424Z,101345.84
2023-01-29T08:47:05.234Z,101368.78
2023-01-29T08:50:08.299Z,101377.44
2023-01-29T08:53:10.959Z,101369.41
2023-01-29T08:56:19.573Z,101382.69
2023-01-29T08:59:36.324Z,101367.38
2023-01-29T09:02:38.750Z,101374.50
2023-01-29T09:05:41.799Z,101394.25
2023-01-29T09:08:44.375Z,101390.25
2023-01-29T09:11:47.067Z,101398.00
2023-01-29T09:14:49.446Z,101394.69
2023-01-29T09:17:52.270Z,101373.50
2023-01-29T09:20:54.653Z,101394.28
2023-01-29T09:23:57.350Z,101381.66
2023-01-29T09:26:59.728Z,101390.25
2023-01-29T09:30:02.513Z,101376.56
2023-01-29T09:33:08.341Z,101398.47
2023-01-29T09:36:11.016Z,101385.47
2023-01-29T09:39:13.397Z,101409.19
2023-01-29T09:42:43.802Z,101399.91
2023-01-29T09:45:55.119Z,101386.91
2023-01-29T09:49:07.601Z,101416.81
2023-01-29T09:52:27.200Z,101397.25
2023-01-29T09:55:45.935Z,101421.69
2023-01-29T09:58:48.537Z,101416.41
2023-01-29T10:02:06.157Z,101413.44
2023-01-29T10:05:36.442Z,101409.87
2023-01-29T10:09:00.511Z,101416.47
2023-01-29T10:12:29.789Z,101413.75
2023-01-29T10:15:57.975Z,101412.69
2023-01-29T10:19:21.273Z,101409.31
2023-01-29T10:22:45.526Z,101394.34
2023-01-29T10:25:49.079Z,101410.37
2023-01-29T10:28:55.357Z,101409.91
2023-01-29T10:32:05.040Z,101400.22
2023-01-29T10:35:30.612Z,101405.75
2023-01-29T10:38:53.348Z,101412.25
2023-01-29T10:42:13.767Z,101407.00
2023-01-29T10:45:31.545Z,101412.06
2023-01-29T10:48:44.721Z,101401.53
2023-01-29T10:51:47.381Z,101370.59
2023-01-29T10:55:18.012Z,101397.09
2023-01-29T10:58:37.084Z,101396.47
2023-01-29T11:01:39.488Z,101385.09
2023-01-29T11:04:42.231Z,101373.13
2023-01-29T11:07:44.814Z,101364.88
2023-01-29T11:11:13.536Z,101374.34
2023-01-29T11:14:26.863Z,101377.09
2023-01-29T11:17:29.737Z,101368.69
2023-01-29T11:20:34.318Z,101356.47
2023-01-29T11:23:37.012Z,101362.75
2023-01-29T11:26:42.393Z,101347.78
2023-01-29T11:29:47.995Z,101324.63
2023-01-29T11:32:57.044Z,101343.31
2023-01-29T11:36:00.606Z,101332.56
2023-01-29T11:39:09.183Z,101339.84
2023-01-29T11:42:21.030Z,101326.13
2023-01-29T11:45:23.423Z,101307.91
2023-01-29T11:48:50.243Z,101319.75
2023-01-29T11:51:56.055Z,101314.25
2023-01-29T11:55:03.747Z,101276.28
2023-01-29T11:58:27.598Z,101266.53
2023-01-29T12:01:37.316Z,101282.81
2023-01-29T12:04:40.366Z,101269.66
2023-01-29T12:07:45.513Z,101283.19
2023-01-29T12:10:48.319Z,101288.59
2023-01-29T12:13:59.759Z,101285.38
2023-01-29T12:17:12.247Z,101291.72
2023-01-29T12:20:28.175Z,101279.41
2023-01-29T12:23:58.323Z,101257.72
2023-01-29T12:27:15.868Z,101274.66
2023-01-29T12:30:31.588Z,101276.75
2023-01-29T12:33:40.078Z,101275.91
2023-01-29T12:36:55.404Z,101280.22
2023-01-29T12:39:57.780Z,101263.91
2023-01-29T12:43:07.132Z,101256.25
2023-01-29T12:46:35.097Z,101262.62
2023-01-29T12:49:39.758Z,101266.09
2023-01-29T12:52:48.300Z,101255.03
2023-01-29T12:55:57.675Z,101270.00
2023-01-29T12:59:04.787Z,101243.50
2023-01-29T13:06:25.517Z,101266.00
2023-01-29T13:09:33.340Z,101256.59
2023-01-29T13:12:38.697Z,101233.41
2023-01-29T13:15:44.300Z,101241.25
2023-01-29T13:18:52.861Z,101229.25
2023-01-29T13:22:01.257Z,101209.47
2023-01-29T13:25:05.770Z,101209.16
2023-01-29T13:28:19.000Z,101226.13
2023-01-29T13:31:33.744Z,101194.56
2023-01-29T13:34:48.663Z,101218.62
2023-01-29T13:37:55.246Z,101207.81
2023-01-29T13:41:03.677Z,101219.25
2023-01-29T13:44:09.503Z,101222.72
2023-01-29T13:47:28.213Z,101232.78
2023-01-29T13:50:38.563Z,101224.81
2023-01-29T13:53:42.390Z,101231.13
2023-01-29T13:56:58.450Z,101228.62
2023-01-29T14:00:01.119Z,101207.31
2023-01-29T14:03:04.771Z,101210.81
2023-01-29T14:06:08.698Z,101205.78
2023-01-29T14:09:40.167Z,101229.28
2023-01-29T14:12:43.996Z,101231.31
2023-01-29T14:15:54.566Z,101243.66
2023-01-29T14:19:00.173Z,101223.47
2023-01-29T14:22:02.665Z,101249.88
2023-01-29T14:25:06.728Z,101248.84
2023-01-29T14:28:16.679Z,101239.22
2023-01-29T14:32:13.758Z,101248.28
2023-01-29T14:35:49.348Z,101252.28
2023-01-29T14:38:54.509Z,101253.72
2023-01-29T14:41:57.876Z,101246.16
2023-01-29T14:45:08.571Z,101247.44
2023-01-29T14:48:10.942Z,101248.72
2023-01-29T14:51:16.808Z,101244.53
2023-01-29T14:54:27.817Z,101241.59
2023-01-29T14:57:31.819Z,101218.88
2023-01-29T15:00:38.917Z,101245.38
2023-01-29T15:03:50.958Z,101247.44
2023-01-29T15:07:04.381Z,101223.72
2023-01-29T15:10:22.701Z,101248.50
2023-01-29T15:13:38.243Z,101247.47
2023-01-29T15:17:18.178Z,101246.00
2023-01-29T15:20:35.835Z,101238.03
2023-01-29T15:23:40.741Z,101236.16
2023-01-29T15:26:43.458Z,101209.87
2023-01-29T15:29:57.562Z,101228.16
2023-01-29T15:33:02.154Z,101223.34
2023-01-29T15:36:09.357Z,101224.78
2023-01-29T15:39:21.532Z,101208.19
2023-01-29T15:42:26.865Z,101228.81
2023-01-29T15:45:33.996Z,101234.69
2023-01-29T15:48:41.052Z,101239.72
2023-01-29T15:51:43.692Z,101242.88
2023-01-29T15:54:47.177Z,101247.31
2023-01-29T15:57:50.260Z,101243.31
2023-01-29T16:00:55.578Z,101222.69
2023-01-29T16:04:03.139Z,101236.56
2023-01-29T16:07:05.659Z,101245.41
2023-01-29T16:10:16.527Z,101248.75
2023-01-29T16:13:23.597Z,101242.66
2023-01-29T16:16:28.199Z,101248.75
2023-01-29T16:19:30.935Z,101227.50
2023-01-29T16:22:38.331Z,101243.72
2023-01-29T16:25:40.812Z,101257.59
2023-01-29T16:28:45.321Z,101234.66
2023-01-29T16:31:50.886Z,101253.78
2023-01-29T16:34:57.955Z,101264.69
2023-01-29T16:38:04.768Z,101265.50
2023-01-29T16:41:15.512Z,101248.66
2023-01-29T16:44:20.929Z,101257.50
2023-01-29T16:47:29.763Z,101275.59
2023-01-29T16:50:46.245Z,101275.59
2023-01-29T16:53:58.278Z,101259.19
2023-01-29T16:57:02.221Z,101263.19
2023-01-29T17:00:08.765Z,101280.25
2023-01-29T17:03:13.207Z,101282.38
2023-01-29T17:06:23.326Z,101257.53
2023-01-29T17:09:32.890Z,101282.78
2023-01-29T17:12:37.360Z,101289.94
2023-01-29T17:15:48.244Z,101280.25
2023-01-29T17:18:51.276Z,101274.97
2023-01-29T17:21:53.801Z,101272.44
2023-01-29T17:24:56.537Z,101267.19
2023-01-29T17:28:01.578Z,101266.75
2023-01-29T17:31:07.219Z,101233.09
2023-01-29T17:34:14.913Z,101263.38
2023-01-29T17:37:17.853Z,101253.25
2023-01-29T17:40:33.531Z,101250.94
2023-01-29T17:43:36.234Z,101227.69
2023-01-29T17:46:38.601Z,101223.69
2023-01-29T17:49:42.165Z,101246.78
2023-01-29T17:52:44.547Z,101249.31
2023-01-29T17:55:47.575Z,101244.16
2023-01-29T17:58:50.007Z,101232.88
2023-01-29T18:01:53.711Z,101232.94
2023-01-29T18:08:33.787Z,101227.47
2023-01-29T18:11:36.532Z,101218.69
2023-01-29T18:14:38.897Z,101218.84
2023-01-29T18:17:41.838Z,101231.22
2023-01-29T18:20:45.120Z,101195.12
2023-01-29T18:23:47.817Z,101219.91
2023-01-29T18:26:51.309Z,101213.16
2023-01-29T18:29:54.056Z,101196.16
2023-01-29T18:32:57.620Z,101195.12
2023-01-29T18:36:00.804Z,101213.16
2023-01-29T18:39:03.200Z,101188.78
2023-01-29T18:42:05.930Z,101187.47
2023-01-29T18:45:08.762Z,101206.87
2023-01-29T18:48:11.381Z,101205.44
2023-01-29T18:51:13.933Z,101204.91
2023-01-29T18:54:18.261Z,101205.53
2023-01-29T18:58:27.174Z,101213.50
2023-01-29T19:00:43.834Z,101215.12
2023-01-29T19:03:46.249Z,101209.25
2023-01-29T19:06:48.913Z,101210.37
2023-01-29T19:09:51.317Z,101217.31
2023-01-29T19:12:53.941Z,101219.75
2023-01-29T19:15:56.434Z,101213.06
2023-01-29T19:18:59.879Z,101192.66
2023-01-29T19:22:02.506Z,101200.16
2023-01-29T19:25:06.236Z,101208.78
2023-01-29T19:28:09.040Z,101200.91
2023-01-29T19:31:11.735Z,101187.78
2023-01-29T19:34:14.595Z,101184.06
2023-01-29T19:37:17.294Z,101183.03
2023-01-29T19:40:19.863Z,101203.59
2023-01-29T19:43:22.616Z,101200.59
2023-01-29T19:46:24.964Z,101188.88
2023-01-29T19:49:27.588Z,101192.47
2023-01-29T19:52:50.641Z,101170.56
2023-01-29T19:56:01.981Z,101188.47
2023-01-29T19:59:05.127Z,101190.34
2023-01-29T20:02:09.636Z,101194.09
2023-01-29T20:05:13.088Z,101182.25
2023-01-29T20:08:15.555Z,101175.34
2023-01-29T20:11:20.801Z,101197.25
2023-01-29T20:14:23.139Z,101191.56
2023-01-29T20:17:25.814Z,101172.53
2023-01-29T20:20:29.843Z,101162.91
2023-01-29T20:23:38.400Z,101180.88
2023-01-29T20:26:41.094Z,101152.25
2023-01-29T20:29:45.278Z,101150.44
2023-01-29T20:32:47.611Z,101168.34
2023-01-29T20:36:10.850Z,101164.75
2023-01-29T20:39:13.362Z,101164.38
2023-01-29T20:42:15.996Z,101156.09
2023-01-29T20:45:18.660Z,101163.09
2023-01-29T20:48:21.299Z,101139.03
2023-01-29T20:51:24.033Z,101165.13
2023-01-29T20:54:26.905Z,101169.47
2023-01-29T20:57:29.732Z,101145.03
2023-01-29T21:00:32.367Z,101152.41
2023-01-29T21:03:34.751Z,101181.66
2023-01-29T21:06:37.358Z,101178.31
2023-01-29T21:09:39.711Z,101182.63
2023-01-29T21:12:42.340Z,101158.41
2023-01-29T21:15:44.972Z,101185.84
2023-01-29T21:18:47.613Z,101189.97
2023-01-29T21:21:49.963Z,101171.50
2023-01-29T21:24:52.593Z,101175.41
2023-01-29T21:27:55.109Z,101201.72
2023-01-29T21:31:11.816Z,101205.47
2023-01-29T21:34:14.185Z,101175.56
2023-01-29T21:37:16.861Z,101198.94
2023-01-29T21:40:21.281Z,101198.59
2023-01-29T21:43:23.909Z,101200.66
2023-01-29T21:46:26.289Z,101174.56
2023-01-29T21:49:31.027Z,101195.12
2023-01-29T21:52:33.404Z,101190.09
2023-01-29T21:55:36.097Z,101189.94
2023-01-29T21:58:38.425Z,101172.28
2023-01-29T22:01:41.089Z,101184.75
2023-01-29T22:04:43.731Z,101179.87
2023-01-29T22:07:46.324Z,101176.37
2023-01-29T22:10:49.039Z,101160.81
2023-01-29T22:13:51.670Z,101174.66
2023-01-29T22:16:54.375Z,101159.16
2023-01-29T22:19:56.755Z,101154.94
2023-01-29T22:23:00.557Z,101165.91
2023-01-29T22:26:04.578Z,101139.03
2023-01-29T22:29:07.200Z,101144.16
2023-01-29T22:32:10.814Z,101144.94
2023-01-29T22:35:13.824Z,101136.13
2023-01-29T22:38:16.238Z,101133.41
2023-01-29T22:41:18.875Z,101127.72
2023-01-29T22:44:21.280Z,101123.56
2023-01-29T22:47:23.904Z,101132.34
2023-01-29T22:50:26.262Z,101129.78
2023-01-29T22:53:28.853Z,101123.47
2023-01-29T22:56:31.245Z,101118.09
2023-01-29T22:59:33.981Z,101092.91
2023-01-29T23:02:36.534Z,101089.03
2023-01-29T23:05:39.208Z,101087.31
2023-01-29T23:08:41.710Z,101119.84
2023-01-29T23:11:44.349Z,101116.09
2023-01-29T23:14:47.064Z,101110.63
2023-01-29T23:17:49.651Z,101110.09
2023-01-29T23:20:56.939Z,101102.91
2023-01-29T23:24:00.570Z,101078.53
2023-01-29T23:27:14.677Z,101099.19
2023-01-29T23:30:17.646Z,101067.25
2023-01-29T23:33:20.421Z,101095.19
2023-01-29T23:36:23.112Z,101092.91
2023-01-29T23:39:25.440Z,101066.47
2023-01-29T23:42:28.055Z,101077.44
2023-01-29T23:45:30.390Z,101076.34
2023-01-29T23:48:33.057Z,101078.84
2023-01-29T23:51:35.434Z,101069.22
2023-01-29T23:54:38.078Z,101058.31
2023-01-29T23:57:40.391Z,101061.88
